createdAt,value
2023-03-28T00:44:40.274Z,68.99
2023-03-28T00:49:12.240Z,69.25
2023-03-28T00:53:41.563Z,69.20
2023-03-28T01:19:30.647Z,69.80
2023-03-28T01:23:21.665Z,70.04
2023-03-28T01:27:56.937Z,70.27
2023-03-28T01:32:40.832Z,70.13
2023-03-28T01:37:14.262Z,70.41
2023-03-28T01:41:45.811Z,70.31
2023-03-28T02:16:37.898Z,70.06
2023-03-28T02:20:39.687Z,69.96
2023-03-28T02:25:18.151Z,70.19
2023-03-28T02:29:42.524Z,70.13
2023-03-28T02:34:17.978Z,70.34
2023-03-28T02:38:26.373Z,70.56
2023-03-28T02:42:53.992Z,70.73
2023-03-28T03:09:15.289Z,71.02
2023-03-28T03:13:33.696Z,71.02
2023-03-28T03:44:03.172Z,70.81
2023-03-28T03:48:31.957Z,70.59
2023-03-28T03:52:52.742Z,70.69
2023-03-28T03:56:47.821Z,70.79
2023-03-28T04:22:49.417Z,71.30
2023-03-28T04:26:51.214Z,71.07
2023-03-28T04:30:32.595Z,71.07
2023-03-28T04:34:59.832Z,70.94
2023-03-28T04:38:47.625Z,71.13
2023-03-28T04:43:03.857Z,71.23
2023-03-28T04:46:57.638Z,71.22
2023-03-28T04:50:35.589Z,70.95
2023-03-28T04:54:34.413Z,70.78
2023-03-28T04:58:38.494Z,71.15
2023-03-28T05:01:51.604Z,71.32
2023-03-28T05:06:09.790Z,71.37
2023-03-28T05:10:14.448Z,71.38
2023-03-28T05:48:17.553Z,71.41
2023-03-28T06:26:06.940Z,70.51
2023-03-28T06:30:29.300Z,70.59
2023-03-28T06:34:36.673Z,70.59
2023-03-28T06:38:47.981Z,70.70
2023-03-28T06:43:17.436Z,70.91
2023-03-28T06:47:35.019Z,70.39
2023-03-28T07:28:11.335Z,69.39
2023-03-28T07:32:38.665Z,69.31
2023-03-28T07:37:12.363Z,69.39
2023-03-28T07:41:42.606Z,69.65
2023-03-28T07:46:03.655Z,68.14
2023-03-28T08:40:25.697Z,61.88
2023-03-28T08:44:47.300Z,61.19
2023-03-28T09:07:24.690Z,55.41
2023-03-28T09:11:43.259Z,55.23
2023-03-28T09:16:09.404Z,55.77
2023-03-28T09:20:51.760Z,54.98
2023-03-28T09:25:27.916Z,54.86
2023-03-28T09:30:00.221Z,53.06
2023-03-28T10:00:50.156Z,49.85
2023-03-28T10:05:05.597Z,49.85
2023-03-28T10:09:06.795Z,49.17
2023-03-28T10:13:39.298Z,49.79
2023-03-28T10:17:32.825Z,49.14
2023-03-28T10:22:06.252Z,49.23
2023-03-28T10:26:35.237Z,48.77
2023-03-28T11:19:25.656Z,44.28
2023-03-28T11:24:00.371Z,44.44
2023-03-28T11:28:10.791Z,44.77
2023-03-28T11:32:16.349Z,43.96
2023-03-28T11:36:41.136Z,43.40
2023-03-28T11:41:25.447Z,43.68
2023-03-28T11:45:53.232Z,43.39
2023-03-28T11:50:27.888Z,43.60
2023-03-28T11:59:27.734Z,43.70
2023-03-28T12:35:19.727Z,41.10
2023-03-28T12:39:57.969Z,40.10
2023-03-28T12:44:39.180Z,40.09
2023-03-28T12:49:04.988Z,40.20
2023-03-28T12:53:37.438Z,39.73
2023-03-28T12:58:23.090Z,39.43
2023-03-28T13:15:55.156Z,38.15
2023-03-28T13:19:48.809Z,37.54
2023-03-28T13:24:06.085Z,37.52
2023-03-28T13:28:21.346Z,37.52
2023-03-28T13:49:33.121Z,36.90
2023-03-28T13:54:02.090Z,36.46
2023-03-28T13:58:27.900Z,36.10
2023-03-28T14:02:57.281Z,36.27
2023-03-28T14:07:16.782Z,35.75
2023-03-28T14:24:36.917Z,35.90
2023-03-28T14:29:06.873Z,35.30
2023-03-28T14:50:20.096Z,35.31
2023-03-28T14:54:14.571Z,34.30
2023-03-28T14:58:43.876Z,34.86
2023-03-28T15:29:11.636Z,35.18
2023-03-28T15:33:41.555Z,35.33
2023-03-28T16:04:05.948Z,36.10
2023-03-28T16:08:27.392Z,36.20
2023-03-28T16:12:27.487Z,36.13
2023-03-28T16:16:55.205Z,36.40
2023-03-28T16:21:24.284Z,36.60
2023-03-28T16:47:35.721Z,37.88
2023-03-28T16:51:54.787Z,38.22
2023-03-28T16:56:25.276Z,38.40
2023-03-28T17:19:07.798Z,39.48
2023-03-28T17:23:11.046Z,39.88
2023-03-28T17:26:51.832Z,40.30
2023-03-28T17:31:11.237Z,40.54
2023-03-28T17:52:41.941Z,42.56
2023-03-28T17:57:11.370Z,42.47
2023-03-28T18:01:40.821Z,43.28
2023-03-28T18:06:00.771Z,43.24
2023-03-28T18:10:06.194Z,43.75
2023-03-28T18:18:13.570Z,44.33
2023-03-28T18:22:43.335Z,44.69
2023-03-28T18:27:09.321Z,45.19
2023-03-28T18:53:09.659Z,46.63
2023-03-28T18:57:23.167Z,46.99
2023-03-28T19:01:51.571Z,47.48
2023-03-28T19:06:21.060Z,47.41
2023-03-28T19:10:31.206Z,47.50
2023-03-28T19:45:10.997Z,49.10
2023-03-28T19:49:39.982Z,49.29
2023-03-28T19:53:57.894Z,49.68
2023-03-28T20:25:19.358Z,50.99
2023-03-28T20:29:48.757Z,50.96
2023-03-28T20:51:46.757Z,52.03
2023-03-28T20:56:16.660Z,52.31
2023-03-28T21:17:58.358Z,53.19
2023-03-28T21:22:27.897Z,53.54
2023-03-28T21:43:54.841Z,54.48
2023-03-28T21:48:16.376Z,54.74
2023-03-28T22:11:57.883Z,55.58
2023-03-28T22:16:26.768Z,55.82
2023-03-28T22:20:57.135Z,56.20
2023-03-28T22:38:07.404Z,56.37
2023-03-28T22:42:36.264Z,56.62
2023-03-28T22:47:05.169Z,56.37
2023-03-28T22:51:18.293Z,56.61
2023-03-28T23:12:26.967Z,56.44
2023-03-28T23:16:49.314Z,56.32
2023-03-28T23:42:57.042Z,56.20
2023-03-28T23:47:25.819Z,56.17
2023-03-28T23:51:43.731Z,56.36
2023-03-28T23:56:14.011Z,56.27
